Tropical Cyclones
[Index]
Main Index Home Page Stock Weather Photos Extreme Storms Discussion Storm News and Storm Chasing Reports Tropical Cyclones / Hurricanes / Typhoons Weather Data and Links Wild Fires / Bushfires Weather Observation Techniques Weather Picture Catalogue Tornado Pictures and Reports Stock Video Footage and DVDs for sale
Season 2012-2013 Tropical Cyclone PETA Track Map
Season 2012-2013 Summaries (Operational Data): [AU] [SIO] [SPAC] [SH]
<<- Previous TC | 2012-2013 Season | Next TC ->>

click for intensity scale information  Lat/long Grid: Show Hide

 Date Labels: Show Hide

Operational Tropical Cyclone Data : JTWC Advisories

Name: PETA
Number: 1312

19 Jan 2013 06:00 UTC to 26 Jan 2013 06:00 UTC

    date/time    lat    long     hPa   cat  kts
2013-01-19 06   16.3   122.7    1010         15          
2013-01-19 12   16.3   122.5    1010         15          
2013-01-19 18   16.3   122.3    1010         15          
2013-01-20 00   17.0   122.7    1010         15          
2013-01-20 06   16.4   122.2    1010         15          
2013-01-20 12   16.8   122.2    1010         15          
2013-01-20 18   17.3   122.3    1010         15          
2013-01-21 00   17.9   122.4    1010         15          
2013-01-21 06   18.4   122.0    1007         20          
2013-01-21 12   18.8   121.4    1007         20          
2013-01-21 18   19.2   120.7    1004         25          
2013-01-22 00   19.4   120.0    1000         30          
2013-01-22 06   19.5   119.6    1000         30          
2013-01-22 12   19.8   118.7    1000         30          
2013-01-22 18   19.9   118.0    1000         30          
2013-01-23 00   20.2   117.7     996    1    35          
2013-01-23 06   21.1   117.6     996    1    35          
2013-01-23 12   21.6   117.5     996    1    35          
2013-01-23 18   22.2   117.6    1004         25          
2013-01-24 00   22.4   117.3    1007         20          
2013-01-24 06   21.9   116.8    1007         20          
2013-01-24 12   21.3   116.1     998         20          
2013-01-24 18   20.8   115.4    1007         20          
2013-01-25 00   20.4   114.8    1007         20          
2013-01-25 06   20.2   114.4    1007         20          
2013-01-25 12   19.7   113.7    1007         20          
2013-01-25 18   19.2   113.2    1004         25          
2013-01-26 00   19.1   112.6    1004         25          
2013-01-26 06   19.3   111.5    1004         25          
Winds are 10-min average.

Tropical cyclone tracks developed by Michael Bath using operational warnings and advisories and Google Maps.


[Australian Severe Weather index] [Copyright Notice] [Email Contacts] [Search This Site] [Privacy Policy]
Document: tropical_cyclone_peta.htm Updated: 2 May 2017